In Rescue
 
Open Full Screen Window  High Contrast Mode
Wind Gusting 00 knots
05
December 19, 2018 11:09 AM EST
Weather Information
Wind Direction
  220 °
Wind Speed
  05 kt (6 mph)
Wind Gust
  00 kt (0 mph)
Altimeter
30.04 in
Visibility
10 SM
Temperature
04° C
39° F
Dewpoint
-01° C
30° F
Humidity
70%
1hr Rain Fall
00.00 in.
24hr Rain Fall
00.00 in.
Sky Condition
Clear
VFR

METAR KI19 191609Z AUTO 22005KT 10SM CLR 04/M01 A3004 RMK AO2 T00441006

FAA Disclaimer: The data displayed is for advisory purposes only and is not to be used for flight planning or operations.